createdAt,value
2023-02-11T00:00:06.097Z,69.51
2023-02-11T00:02:32.685Z,69.71
2023-02-11T00:05:00.767Z,69.69
2023-02-11T00:07:28.957Z,69.71
2023-02-11T00:09:54.872Z,69.69
2023-02-11T00:12:21.245Z,69.90
2023-02-11T00:14:47.635Z,69.92
2023-02-11T00:17:13.766Z,69.97
2023-02-11T00:19:39.727Z,69.88
2023-02-11T00:22:05.833Z,69.92
2023-02-11T00:24:31.861Z,69.88
2023-02-11T00:26:57.780Z,69.94
2023-02-11T00:29:23.893Z,69.81
2023-02-11T00:31:49.901Z,69.88
2023-02-11T00:34:15.961Z,69.81
2023-02-11T00:36:42.089Z,69.88
2023-02-11T00:39:08.100Z,69.81
2023-02-11T00:41:34.804Z,69.68
2023-02-11T00:44:01.711Z,69.75
2023-02-11T00:46:27.854Z,69.73
2023-02-11T00:48:57.014Z,69.48
2023-02-11T00:51:27.033Z,69.39
2023-02-11T00:53:53.257Z,69.71
2023-02-11T00:56:19.378Z,69.64
2023-02-11T00:58:45.319Z,69.69
2023-02-11T01:01:11.954Z,69.59
2023-02-11T01:03:38.066Z,69.49
2023-02-11T01:06:05.248Z,69.50
2023-02-11T01:08:31.244Z,69.32
2023-02-11T01:10:58.914Z,69.38
2023-02-11T01:13:25.144Z,69.45
2023-02-11T01:15:53.978Z,69.19
2023-02-11T01:18:19.998Z,69.26
2023-02-11T01:20:46.973Z,69.36
2023-02-11T01:23:12.895Z,69.33
2023-02-11T01:25:38.788Z,69.20
2023-02-11T01:28:04.912Z,69.54
2023-02-11T01:30:30.870Z,69.49
2023-02-11T01:32:56.757Z,69.49
2023-02-11T01:35:22.651Z,69.49
2023-02-11T01:37:49.471Z,69.37
2023-02-11T01:40:16.322Z,69.26
2023-02-11T01:42:43.349Z,69.51
2023-02-11T01:45:40.569Z,69.49
2023-02-11T01:48:06.512Z,69.36
2023-02-11T01:50:32.971Z,69.35
2023-02-11T01:53:18.974Z,69.50
2023-02-11T01:56:04.210Z,69.49
2023-02-11T01:58:30.163Z,69.63
2023-02-11T02:00:56.176Z,69.71
2023-02-11T02:03:22.124Z,69.28
2023-02-11T02:05:58.816Z,69.44
2023-02-11T02:08:52.681Z,69.37
2023-02-11T02:11:18.789Z,69.41
2023-02-11T02:13:45.093Z,69.43
2023-02-11T02:16:13.432Z,69.44
2023-02-11T02:19:02.759Z,69.11
2023-02-11T02:22:06.879Z,68.93
2023-02-11T02:25:00.383Z,68.99
2023-02-11T02:27:37.741Z,69.14
2023-02-11T02:30:29.415Z,68.91
2023-02-11T02:33:27.977Z,69.06
2023-02-11T02:35:59.607Z,69.07
2023-02-11T02:38:53.582Z,69.14
2023-02-11T02:41:23.218Z,69.01
2023-02-11T02:43:50.046Z,68.98
2023-02-11T02:46:20.007Z,68.98
2023-02-11T02:48:46.593Z,69.13
2023-02-11T02:51:15.214Z,68.85
2023-02-11T02:54:00.145Z,68.93
2023-02-11T02:56:55.330Z,68.62
2023-02-11T02:59:50.855Z,68.72
2023-02-11T03:02:26.514Z,68.63
2023-02-11T03:05:04.518Z,68.77
2023-02-11T03:07:36.460Z,68.76
2023-02-11T03:10:25.140Z,68.56
2023-02-11T03:12:51.090Z,68.25
2023-02-11T03:15:17.175Z,68.12
2023-02-11T03:17:45.656Z,67.90
2023-02-11T03:20:13.007Z,68.05
2023-02-11T03:22:57.013Z,68.25
2023-02-11T03:25:28.569Z,68.32
2023-02-11T03:28:27.133Z,68.21
2023-02-11T03:30:56.811Z,68.41
2023-02-11T03:33:37.092Z,68.44
2023-02-11T03:36:05.631Z,68.30
2023-02-11T03:38:34.128Z,68.04
2023-02-11T03:41:00.163Z,68.25
2023-02-11T03:43:39.058Z,68.20
2023-02-11T03:46:04.996Z,68.16
2023-02-11T03:48:33.376Z,68.21
2023-02-11T03:51:00.643Z,68.17
2023-02-11T03:53:26.565Z,67.69
2023-02-11T03:55:53.510Z,67.94
2023-02-11T03:58:19.438Z,68.08
2023-02-11T04:00:45.555Z,67.90
2023-02-11T04:03:12.218Z,67.99
2023-02-11T04:05:38.324Z,67.91
2023-02-11T04:08:04.502Z,67.88
2023-02-11T04:10:30.416Z,67.92
2023-02-11T04:12:56.407Z,68.00
2023-02-11T04:15:22.704Z,67.83
2023-02-11T04:17:48.609Z,68.04
2023-02-11T04:20:14.524Z,68.04
2023-02-11T04:22:40.415Z,67.79
2023-02-11T04:25:07.325Z,67.42
2023-02-11T04:27:33.358Z,67.66
2023-02-11T04:29:59.385Z,67.72
2023-02-11T04:32:25.302Z,67.76
2023-02-11T04:34:51.437Z,67.69
2023-02-11T04:37:17.395Z,67.62
2023-02-11T04:39:43.324Z,67.77
2023-02-11T04:42:10.086Z,67.57
2023-02-11T04:44:35.994Z,67.83
2023-02-11T04:47:01.929Z,67.62
2023-02-11T04:49:27.928Z,67.65
2023-02-11T04:51:53.851Z,67.51
2023-02-11T04:54:19.837Z,67.47
2023-02-11T04:56:45.855Z,67.56
2023-02-11T04:59:12.707Z,67.65
2023-02-11T05:01:39.377Z,67.58
2023-02-11T05:04:05.437Z,67.79
2023-02-11T05:06:31.350Z,67.74
2023-02-11T05:08:57.257Z,67.72
2023-02-11T05:11:23.941Z,67.52
2023-02-11T05:13:50.074Z,67.77
2023-02-11T05:16:16.392Z,67.62
2023-02-11T05:18:43.025Z,67.70
2023-02-11T05:21:11.105Z,67.69
2023-02-11T05:23:37.766Z,67.67
2023-02-11T05:26:03.878Z,67.54
2023-02-11T05:28:29.862Z,67.58
2023-02-11T05:30:56.193Z,67.46
2023-02-11T05:33:22.248Z,67.59
2023-02-11T05:35:48.444Z,67.48
2023-02-11T05:38:14.606Z,67.35
2023-02-11T05:40:40.505Z,67.21
2023-02-11T05:43:06.395Z,67.28
2023-02-11T05:45:32.666Z,67.45
2023-02-11T05:47:58.558Z,67.33
2023-02-11T05:50:24.621Z,67.32
2023-02-11T05:52:52.282Z,67.44
2023-02-11T05:55:18.473Z,67.34
2023-02-11T05:57:44.438Z,67.37
2023-02-11T06:00:11.138Z,67.26
2023-02-11T06:02:39.928Z,67.52
2023-02-11T06:05:06.685Z,67.34
2023-02-11T06:07:32.589Z,67.21
2023-02-11T06:09:58.983Z,67.33
2023-02-11T06:12:24.884Z,67.17
2023-02-11T06:14:50.787Z,67.12
2023-02-11T06:17:16.825Z,67.26
2023-02-11T06:19:42.744Z,67.39
2023-02-11T06:22:08.654Z,67.25
2023-02-11T06:24:58.492Z,67.41
2023-02-11T06:27:20.663Z,67.22
2023-02-11T06:29:47.219Z,67.57
2023-02-11T06:32:33.554Z,67.43
2023-02-11T06:34:59.838Z,67.54
2023-02-11T06:37:25.874Z,67.43
2023-02-11T06:39:51.802Z,67.50
2023-02-11T06:42:17.681Z,67.52
2023-02-11T06:44:44.075Z,67.66
2023-02-11T06:47:10.047Z,67.69
2023-02-11T06:49:36.000Z,67.67
2023-02-11T06:52:02.846Z,67.44
2023-02-11T06:54:28.719Z,67.40
2023-02-11T06:56:54.616Z,67.67
2023-02-11T06:59:20.599Z,67.64
2023-02-11T07:01:46.683Z,67.67
2023-02-11T07:04:14.097Z,67.48
2023-02-11T07:06:40.078Z,67.40
2023-02-11T07:09:06.349Z,67.61
2023-02-11T07:11:32.403Z,67.79
2023-02-11T07:14:07.724Z,67.70
2023-02-11T07:16:33.965Z,67.63
2023-02-11T07:19:00.059Z,67.88
2023-02-11T07:21:26.212Z,67.95
2023-02-11T07:23:52.176Z,67.95
2023-02-11T07:26:20.593Z,68.09
2023-02-11T07:28:46.611Z,68.23
2023-02-11T07:31:16.896Z,68.17
2023-02-11T07:33:45.139Z,68.31
2023-02-11T07:36:11.548Z,68.62
2023-02-11T07:38:37.631Z,68.57
2023-02-11T07:41:05.098Z,68.57
2023-02-11T07:43:31.578Z,68.81
2023-02-11T07:45:57.636Z,68.74
2023-02-11T07:48:23.621Z,68.44
2023-02-11T07:50:49.559Z,68.79
2023-02-11T07:53:15.559Z,68.80
2023-02-11T07:55:44.735Z,68.82
2023-02-11T07:58:10.646Z,68.93
2023-02-11T08:00:36.715Z,69.00
2023-02-11T08:03:03.251Z,69.34
2023-02-11T08:05:29.973Z,69.17
2023-02-11T08:07:55.895Z,69.63
2023-02-11T08:10:21.934Z,69.93
2023-02-11T08:12:47.868Z,70.39
2023-02-11T08:15:13.878Z,70.26
2023-02-11T08:17:39.805Z,70.41
2023-02-11T08:20:06.718Z,70.63
2023-02-11T08:22:33.613Z,70.81
2023-02-11T08:24:59.874Z,71.02
2023-02-11T08:27:26.036Z,71.17
2023-02-11T08:29:55.021Z,71.09
2023-02-11T08:32:21.317Z,71.60
2023-02-11T08:34:51.597Z,71.48
2023-02-11T08:37:18.232Z,71.69
2023-02-11T08:39:46.691Z,71.99
2023-02-11T08:42:14.867Z,71.81
2023-02-11T08:44:40.834Z,72.02
2023-02-11T08:47:06.812Z,72.38
2023-02-11T08:49:33.468Z,72.39
2023-02-11T08:52:03.397Z,72.43
2023-02-11T08:54:30.468Z,72.58
2023-02-11T08:56:56.441Z,72.35
2023-02-11T08:59:22.451Z,72.65
2023-02-11T09:01:48.535Z,72.71
2023-02-11T09:04:14.612Z,72.77
2023-02-11T09:06:40.739Z,73.15
2023-02-11T09:09:10.551Z,73.18
2023-02-11T09:11:36.455Z,73.44
2023-02-11T09:14:03.011Z,73.43
2023-02-11T09:16:32.372Z,73.45
2023-02-11T09:18:59.194Z,73.17
2023-02-11T09:21:25.561Z,73.43
2023-02-11T09:23:51.576Z,73.61
2023-02-11T09:26:25.415Z,73.80
2023-02-11T09:28:51.546Z,73.87
2023-02-11T09:31:19.773Z,73.77
2023-02-11T09:33:49.868Z,74.10
2023-02-11T09:36:17.914Z,74.13
2023-02-11T09:38:44.241Z,74.29
2023-02-11T09:41:23.132Z,74.30
2023-02-11T09:43:56.398Z,74.46
2023-02-11T09:46:22.684Z,74.31
2023-02-11T09:48:49.615Z,74.54
2023-02-11T09:51:29.202Z,74.55
2023-02-11T09:54:00.292Z,74.59
2023-02-11T09:56:26.888Z,74.72
2023-02-11T09:58:53.604Z,74.94
2023-02-11T10:01:46.696Z,75.02
2023-02-11T10:04:18.790Z,74.76
2023-02-11T10:06:46.919Z,74.83
2023-02-11T10:09:33.915Z,75.12
2023-02-11T10:12:09.025Z,74.87
2023-02-11T10:15:01.213Z,75.15
2023-02-11T10:17:51.591Z,75.00
2023-02-11T10:20:32.907Z,75.38
2023-02-11T10:23:03.502Z,75.38
2023-02-11T10:25:43.682Z,75.52
2023-02-11T10:28:14.423Z,75.44
2023-02-11T10:30:58.987Z,75.35
2023-02-11T10:33:31.854Z,75.59
2023-02-11T10:35:58.465Z,75.64
2023-02-11T10:38:24.496Z,75.59
2023-02-11T10:40:50.717Z,75.83
2023-02-11T10:43:17.894Z,76.06
2023-02-11T10:45:48.510Z,75.94
2023-02-11T10:48:36.494Z,76.08
2023-02-11T10:51:07.299Z,75.88
2023-02-11T10:53:34.241Z,76.13
2023-02-11T10:56:00.149Z,76.15
2023-02-11T10:58:28.778Z,76.22
2023-02-11T11:00:55.789Z,76.32
2023-02-11T11:03:48.357Z,76.19
2023-02-11T11:06:14.291Z,76.24
2023-02-11T11:08:48.767Z,76.43
2023-02-11T11:11:16.950Z,76.32
2023-02-11T11:13:52.208Z,76.50
2023-02-11T11:16:28.159Z,76.64
2023-02-11T11:19:06.642Z,76.70
2023-02-11T11:21:36.360Z,76.79
2023-02-11T11:24:02.742Z,76.76
2023-02-11T11:26:45.991Z,76.81
2023-02-11T11:29:22.714Z,76.98
2023-02-11T11:32:00.556Z,77.13
2023-02-11T11:34:28.966Z,77.02
2023-02-11T11:36:56.033Z,77.02
2023-02-11T11:39:23.080Z,77.30
2023-02-11T11:41:54.048Z,77.13
2023-02-11T11:44:31.231Z,77.34
2023-02-11T11:47:12.993Z,77.33
2023-02-11T11:49:42.499Z,77.43
2023-02-11T11:52:20.421Z,77.73
2023-02-11T11:54:51.156Z,77.85
2023-02-11T11:57:23.514Z,77.76
2023-02-11T11:59:49.542Z,77.74
2023-02-11T12:02:44.034Z,77.72
2023-02-11T12:05:36.995Z,77.84
2023-02-11T12:08:16.506Z,77.80
2023-02-11T12:10:54.626Z,77.85
2023-02-11T12:13:52.902Z,77.99
2023-02-11T12:16:53.321Z,77.93
2023-02-11T12:19:31.654Z,78.13
2023-02-11T12:22:04.915Z,78.29
2023-02-11T12:24:56.684Z,78.46
2023-02-11T12:27:46.871Z,78.48
2023-02-11T12:30:37.363Z,78.65
2023-02-11T12:33:20.977Z,78.56
2023-02-11T12:35:58.635Z,78.68
2023-02-11T12:39:03.016Z,78.63
2023-02-11T12:42:11.075Z,78.81
2023-02-11T12:44:44.839Z,78.94
2023-02-11T12:47:30.310Z,78.83
2023-02-11T12:50:32.582Z,78.89
2023-02-11T12:53:18.237Z,78.95
2023-02-11T12:55:45.523Z,78.94
2023-02-11T12:58:29.724Z,79.18
2023-02-11T13:01:09.046Z,79.21
2023-02-11T13:03:47.391Z,79.16
2023-02-11T13:06:19.906Z,79.42
2023-02-11T13:08:51.674Z,79.43
2023-02-11T13:11:37.591Z,79.35
2023-02-11T13:14:04.223Z,79.48
2023-02-11T13:16:44.791Z,79.74
2023-02-11T13:19:13.555Z,79.60
2023-02-11T13:21:42.464Z,79.70
2023-02-11T13:24:08.550Z,79.64
2023-02-11T13:26:58.839Z,79.73
2023-02-11T13:29:32.966Z,79.80
2023-02-11T13:32:06.745Z,79.93
2023-02-11T13:34:41.577Z,79.97
2023-02-11T13:37:33.359Z,79.98
2023-02-11T13:40:07.013Z,79.92
2023-02-11T13:42:34.433Z,80.14
2023-02-11T13:45:00.413Z,80.09
2023-02-11T13:47:31.151Z,80.14
2023-02-11T13:49:57.262Z,80.18
2023-02-11T13:52:31.468Z,80.21
2023-02-11T13:55:06.247Z,80.10
2023-02-11T13:57:34.533Z,80.24
2023-02-11T14:00:05.541Z,80.23
2023-02-11T14:02:53.724Z,80.34
2023-02-11T14:05:48.024Z,80.20
2023-02-11T14:08:39.421Z,80.13
2023-02-11T14:11:36.336Z,80.33
2023-02-11T14:14:13.831Z,80.34
2023-02-11T14:17:00.809Z,80.26
2023-02-11T14:19:33.078Z,80.48
2023-02-11T14:22:12.770Z,80.39
2023-02-11T14:24:44.698Z,80.33
2023-02-11T14:27:15.257Z,80.36
2023-02-11T14:29:50.442Z,80.49
2023-02-11T14:32:45.079Z,80.67
2023-02-11T14:35:27.291Z,80.73
2023-02-11T14:38:24.360Z,80.91
2023-02-11T14:41:09.129Z,80.89
2023-02-11T14:43:46.825Z,81.02
2023-02-11T14:46:14.394Z,81.06
2023-02-11T14:48:44.350Z,81.17
2023-02-11T14:51:12.345Z,81.24
2023-02-11T14:53:41.030Z,81.52
2023-02-11T14:56:17.499Z,81.38
2023-02-11T14:58:48.246Z,81.45
2023-02-11T15:01:35.088Z,81.41
2023-02-11T15:04:02.862Z,81.36
2023-02-11T15:06:32.124Z,81.48
2023-02-11T15:09:20.063Z,81.61
2023-02-11T15:11:47.310Z,81.66
2023-02-11T15:14:33.007Z,81.81
2023-02-11T15:17:01.128Z,81.92
2023-02-11T15:19:38.962Z,81.93
2023-02-11T15:22:06.421Z,81.93
2023-02-11T15:24:34.714Z,81.95
2023-02-11T15:27:01.763Z,82.18
2023-02-11T15:29:33.995Z,82.17
2023-02-11T15:32:21.180Z,82.19
2023-02-11T15:34:48.654Z,82.31
2023-02-11T15:37:25.886Z,82.44
2023-02-11T15:39:52.605Z,82.45
2023-02-11T15:42:28.743Z,82.58
2023-02-11T15:45:14.103Z,82.69
2023-02-11T15:47:41.830Z,82.80
2023-02-11T15:50:18.977Z,82.79
2023-02-11T15:52:45.231Z,83.07
2023-02-11T15:55:13.185Z,82.95
2023-02-11T15:57:42.740Z,83.00
2023-02-11T16:00:16.193Z,82.99
2023-02-11T16:02:44.707Z,82.94
2023-02-11T16:05:33.822Z,83.15
2023-02-11T16:08:00.120Z,83.19
2023-02-11T16:10:33.702Z,83.31
2023-02-11T16:12:59.659Z,83.34
2023-02-11T16:15:34.547Z,83.42
2023-02-11T16:18:01.608Z,83.42
2023-02-11T16:20:27.445Z,83.41
2023-02-11T16:22:53.403Z,83.54
2023-02-11T16:25:20.203Z,83.61
2023-02-11T16:27:53.123Z,83.77
2023-02-11T16:30:29.152Z,83.64
2023-02-11T16:32:55.148Z,83.72
2023-02-11T16:35:21.116Z,83.74
2023-02-11T16:37:47.085Z,83.87
2023-02-11T16:40:13.738Z,83.82
2023-02-11T16:42:39.953Z,83.62
2023-02-11T16:45:06.790Z,83.86
2023-02-11T16:47:34.850Z,84.01
2023-02-11T16:50:00.813Z,84.19
2023-02-11T16:52:26.934Z,84.10
2023-02-11T16:54:52.918Z,83.94
2023-02-11T16:57:23.604Z,84.05
2023-02-11T16:59:49.585Z,84.07
2023-02-11T17:02:29.879Z,84.20
2023-02-11T17:04:58.540Z,84.23
2023-02-11T17:07:24.568Z,84.23
2023-02-11T17:09:51.644Z,84.40
2023-02-11T17:12:18.040Z,84.33
2023-02-11T17:14:43.965Z,84.49
2023-02-11T17:17:10.508Z,84.49
2023-02-11T17:19:36.623Z,84.89
2023-02-11T17:22:02.761Z,84.73
2023-02-11T17:24:28.752Z,84.74
2023-02-11T17:26:55.017Z,84.89
2023-02-11T17:29:23.250Z,84.94
2023-02-11T17:31:51.247Z,85.04
2023-02-11T17:34:17.964Z,84.93
2023-02-11T17:36:44.225Z,85.07
2023-02-11T17:39:10.203Z,85.32
2023-02-11T17:41:36.907Z,85.22
2023-02-11T17:44:02.978Z,85.25
2023-02-11T17:46:29.029Z,85.34
2023-02-11T17:48:55.273Z,85.36
2023-02-11T17:51:23.214Z,85.33
2023-02-11T17:53:49.273Z,85.40
2023-02-11T17:56:15.196Z,85.40
2023-02-11T17:58:41.115Z,85.34
2023-02-11T18:01:07.067Z,85.41
2023-02-11T18:03:33.251Z,85.50
2023-02-11T18:06:00.244Z,85.32
2023-02-11T18:08:26.139Z,85.25
2023-02-11T18:10:52.442Z,85.38
2023-02-11T18:13:18.374Z,85.34
2023-02-11T18:15:44.388Z,85.18
2023-02-11T18:18:10.316Z,85.24
2023-02-11T18:20:36.251Z,85.29
2023-02-11T18:23:02.207Z,85.40
2023-02-11T18:25:29.320Z,85.51
2023-02-11T18:27:55.836Z,85.47
2023-02-11T18:30:21.979Z,85.56
2023-02-11T18:32:52.879Z,85.37
2023-02-11T18:35:19.469Z,85.45
2023-02-11T18:37:45.413Z,85.44
2023-02-11T18:40:12.300Z,85.36
2023-02-11T18:42:38.443Z,85.38
2023-02-11T18:45:09.009Z,85.41
2023-02-11T18:47:37.193Z,85.51
2023-02-11T18:50:04.983Z,85.46
2023-02-11T18:52:31.242Z,85.61
2023-02-11T18:54:57.126Z,85.44
2023-02-11T18:57:23.298Z,85.65
2023-02-11T18:59:50.135Z,85.61
2023-02-11T19:02:17.131Z,85.64
2023-02-11T19:04:43.241Z,85.50
2023-02-11T19:07:09.547Z,85.76
2023-02-11T19:09:35.505Z,85.83
2023-02-11T19:12:01.996Z,85.63
2023-02-11T19:14:30.802Z,85.71
2023-02-11T19:16:58.523Z,85.82
2023-02-11T19:19:27.378Z,85.92
2023-02-11T19:21:59.301Z,85.79
2023-02-11T19:24:28.627Z,86.09
2023-02-11T19:26:56.670Z,85.90
2023-02-11T19:29:39.074Z,86.10
2023-02-11T19:32:05.534Z,86.03
2023-02-11T19:34:31.784Z,85.85
2023-02-11T19:37:00.242Z,85.93
2023-02-11T19:39:26.887Z,86.10
2023-02-11T19:41:55.757Z,86.08
2023-02-11T19:44:21.802Z,85.95
2023-02-11T19:46:49.520Z,85.91
2023-02-11T19:49:16.902Z,85.95
2023-02-11T19:51:43.072Z,85.84
2023-02-11T19:54:09.451Z,85.59
2023-02-11T19:56:37.224Z,85.87
2023-02-11T19:59:03.804Z,85.68
2023-02-11T20:01:32.223Z,85.71
2023-02-11T20:03:58.665Z,85.64
2023-02-11T20:06:27.431Z,85.58
2023-02-11T20:08:57.259Z,85.58
2023-02-11T20:11:24.834Z,85.84
2023-02-11T20:13:50.966Z,85.65
2023-02-11T20:16:19.042Z,85.50
2023-02-11T20:18:45.780Z,85.53
2023-02-11T20:21:14.451Z,85.69
2023-02-11T20:23:40.553Z,85.59
2023-02-11T20:26:18.562Z,85.57
2023-02-11T20:28:46.351Z,85.49
2023-02-11T20:31:12.444Z,85.49
2023-02-11T20:33:38.920Z,85.62
2023-02-11T20:36:13.429Z,85.43
2023-02-11T20:38:39.499Z,85.46
2023-02-11T20:41:13.544Z,85.45
2023-02-11T20:43:45.439Z,85.73
2023-02-11T20:46:12.084Z,85.52
2023-02-11T20:48:53.940Z,85.28
2023-02-11T20:51:22.378Z,85.51
2023-02-11T20:53:50.448Z,85.48
2023-02-11T20:56:18.397Z,85.43
2023-02-11T20:58:44.456Z,85.43
2023-02-11T21:01:18.650Z,85.61
2023-02-11T21:03:48.697Z,85.27
2023-02-11T21:06:14.973Z,85.36
2023-02-11T21:08:40.997Z,85.69
2023-02-11T21:11:10.339Z,85.56
2023-02-11T21:13:37.286Z,85.52
2023-02-11T21:16:03.861Z,85.46
2023-02-11T21:18:29.864Z,85.36
2023-02-11T21:20:56.141Z,85.34
2023-02-11T21:23:22.325Z,85.21
2023-02-11T21:25:48.404Z,85.52
2023-02-11T21:28:14.511Z,85.39
2023-02-11T21:30:41.384Z,85.43
2023-02-11T21:33:07.499Z,85.40
2023-02-11T21:35:34.245Z,85.54
2023-02-11T21:38:00.367Z,85.48
2023-02-11T21:40:29.150Z,85.46
2023-02-11T21:42:55.548Z,85.33
2023-02-11T21:45:22.404Z,85.17
2023-02-11T21:47:48.358Z,85.24
2023-02-11T21:50:14.343Z,85.24
2023-02-11T21:52:40.302Z,85.14
2023-02-11T21:55:06.417Z,85.08
2023-02-11T21:57:32.376Z,85.10
2023-02-11T21:59:58.502Z,85.41
2023-02-11T22:02:24.403Z,85.64
2023-02-11T22:04:50.390Z,85.15
2023-02-11T22:07:16.514Z,85.00
2023-02-11T22:09:42.474Z,85.37
2023-02-11T22:12:08.385Z,85.20
2023-02-11T22:14:35.261Z,85.09
2023-02-11T22:17:01.225Z,85.28
2023-02-11T22:19:27.194Z,85.30
2023-02-11T22:21:53.069Z,85.08
2023-02-11T22:24:18.949Z,84.98
2023-02-11T22:26:44.819Z,84.84
2023-02-11T22:29:11.679Z,84.91
2023-02-11T22:31:37.958Z,84.94
2023-02-11T22:34:04.217Z,84.58
2023-02-11T22:36:32.527Z,84.79
2023-02-11T22:39:06.275Z,84.56
2023-02-11T22:41:32.887Z,84.62
2023-02-11T22:43:58.920Z,84.27
2023-02-11T22:46:25.094Z,84.41
2023-02-11T22:48:51.529Z,84.41
2023-02-11T22:51:19.859Z,84.41
2023-02-11T22:53:53.725Z,84.43
2023-02-11T22:56:20.043Z,84.27
2023-02-11T22:58:46.209Z,84.21
2023-02-11T23:01:12.302Z,84.38
2023-02-11T23:03:38.430Z,84.06
2023-02-11T23:06:04.761Z,84.01
2023-02-11T23:08:31.328Z,84.18
2023-02-11T23:11:08.431Z,84.31
2023-02-11T23:13:35.674Z,84.15
2023-02-11T23:16:06.937Z,84.29
2023-02-11T23:18:33.943Z,84.34
2023-02-11T23:21:10.137Z,84.01
2023-02-11T23:23:38.483Z,83.48
2023-02-11T23:26:04.642Z,84.13
2023-02-11T23:28:30.903Z,83.80
2023-02-11T23:30:56.998Z,83.53
2023-02-11T23:33:22.953Z,83.41
2023-02-11T23:35:49.105Z,83.40
2023-02-11T23:38:15.172Z,83.28
2023-02-11T23:40:41.435Z,83.18
2023-02-11T23:43:07.881Z,83.02
2023-02-11T23:45:33.936Z,82.87
2023-02-11T23:47:59.956Z,83.04
2023-02-11T23:50:25.867Z,83.20
2023-02-11T23:52:51.811Z,82.99
2023-02-11T23:55:17.798Z,82.87
2023-02-11T23:57:44.030Z,82.79
